createdAt,value
2023-05-08T00:00:03.998Z,1.90
2023-05-08T00:02:37.776Z,2.00
2023-05-08T00:05:10.723Z,2.15
2023-05-08T00:07:43.780Z,2.15
2023-05-08T00:10:16.692Z,1.87
2023-05-08T00:12:49.546Z,2.05
2023-05-08T00:15:22.530Z,1.87
2023-05-08T00:17:55.347Z,1.80
2023-05-08T00:20:29.323Z,2.02
2023-05-08T00:23:01.972Z,1.80
2023-05-08T00:25:34.972Z,2.60
2023-05-08T00:28:07.756Z,2.42
2023-05-08T00:30:41.177Z,2.00
2023-05-08T00:33:14.085Z,2.08
2023-05-08T00:35:47.234Z,1.92
2023-05-08T00:38:20.204Z,1.90
2023-05-08T00:40:52.974Z,2.02
2023-05-08T00:43:27.690Z,2.15
2023-05-08T00:46:02.854Z,2.10
2023-05-08T00:48:37.226Z,2.55
2023-05-08T00:51:11.731Z,3.67
2023-05-08T00:53:45.811Z,3.10
2023-05-08T00:56:19.058Z,2.98
2023-05-08T00:58:52.275Z,2.30
2023-05-08T01:01:25.774Z,2.50
2023-05-08T01:03:58.612Z,2.10
2023-05-08T01:06:32.074Z,2.17
2023-05-08T01:09:05.867Z,2.15
2023-05-08T01:11:43.805Z,2.08
2023-05-08T01:14:50.879Z,2.10
2023-05-08T01:17:39.373Z,2.40
2023-05-08T01:20:41.122Z,1.87
2023-05-08T01:23:47.602Z,2.10
2023-05-08T01:26:58.984Z,2.25
2023-05-08T01:29:59.147Z,2.20
2023-05-08T01:32:44.542Z,2.35
2023-05-08T01:35:27.784Z,2.70
2023-05-08T01:38:21.744Z,2.40
2023-05-08T01:41:04.766Z,2.37
2023-05-08T01:44:00.513Z,2.52
2023-05-08T01:46:35.245Z,2.83
2023-05-08T01:49:14.145Z,2.70
2023-05-08T01:52:00.542Z,2.60
2023-05-08T01:54:38.197Z,2.60
2023-05-08T01:57:12.457Z,2.60
2023-05-08T02:02:17.559Z,2.80
2023-05-08T02:04:53.341Z,2.60
2023-05-08T02:07:27.157Z,2.67
2023-05-08T02:10:00.629Z,3.10
2023-05-08T02:12:37.550Z,2.87
2023-05-08T02:15:13.182Z,2.92
2023-05-08T02:17:48.505Z,3.40
2023-05-08T02:20:22.809Z,4.00
2023-05-08T02:25:28.218Z,4.30
2023-05-08T02:28:01.071Z,3.65
2023-05-08T02:30:34.077Z,3.72
2023-05-08T02:33:09.643Z,3.47
2023-05-08T02:35:45.310Z,3.85
2023-05-08T02:38:21.138Z,4.25
2023-05-08T02:40:57.947Z,3.85
2023-05-08T02:43:31.005Z,3.27
2023-05-08T02:46:32.812Z,3.80
2023-05-08T02:49:16.608Z,4.72
2023-05-08T02:51:55.835Z,3.20
2023-05-08T02:55:01.352Z,3.45
2023-05-08T02:57:45.148Z,2.95
2023-05-08T03:00:30.366Z,3.25
2023-05-08T03:03:23.275Z,3.45
2023-05-08T03:06:01.088Z,3.33
2023-05-08T03:08:36.441Z,3.33
2023-05-08T03:11:12.908Z,3.05
2023-05-08T03:13:47.885Z,3.47
2023-05-08T03:16:23.620Z,3.90
2023-05-08T03:19:02.982Z,3.67
2023-05-08T03:21:37.601Z,3.75
2023-05-08T03:24:11.803Z,5.90
2023-05-08T03:26:45.278Z,3.72
2023-05-08T03:29:19.374Z,3.87
2023-05-08T03:31:53.815Z,4.05
2023-05-08T03:34:26.997Z,4.30
2023-05-08T03:37:00.159Z,4.33
2023-05-08T03:39:35.268Z,4.28
2023-05-08T03:42:08.471Z,5.03
2023-05-08T03:44:41.756Z,4.83
2023-05-08T03:47:15.253Z,4.67
2023-05-08T03:49:49.688Z,4.22
2023-05-08T03:52:23.133Z,4.65
2023-05-08T03:54:56.070Z,3.90
2023-05-08T03:57:33.538Z,4.05
2023-05-08T04:00:23.270Z,3.98
2023-05-08T04:03:06.336Z,3.90
2023-05-08T04:05:44.328Z,4.20
2023-05-08T04:08:33.245Z,5.37
2023-05-08T04:11:28.997Z,4.00
2023-05-08T04:14:06.755Z,4.10
2023-05-08T04:16:43.552Z,5.08
2023-05-08T04:19:21.645Z,5.58
2023-05-08T04:21:58.342Z,4.85
2023-05-08T04:24:33.024Z,4.35
2023-05-08T04:27:06.889Z,4.40
2023-05-08T04:29:39.979Z,5.75
2023-05-08T04:32:14.300Z,4.97
2023-05-08T04:34:47.722Z,6.15
2023-05-08T04:37:34.617Z,5.20
2023-05-08T04:40:10.264Z,5.00
2023-05-08T04:42:45.694Z,5.80
2023-05-08T04:45:19.810Z,5.58
2023-05-08T04:47:52.661Z,4.92
2023-05-08T04:50:26.378Z,5.42
2023-05-08T04:52:59.500Z,4.60
2023-05-08T04:55:32.774Z,5.23
2023-05-08T04:58:05.881Z,5.70
2023-05-08T05:00:38.907Z,5.35
2023-05-08T05:03:11.930Z,6.35
2023-05-08T05:05:45.016Z,5.70
2023-05-08T05:08:19.117Z,5.97
2023-05-08T05:10:51.900Z,6.00
2023-05-08T05:13:24.915Z,6.33
2023-05-08T05:15:59.443Z,6.75
2023-05-08T05:18:33.721Z,6.78
2023-05-08T05:21:06.769Z,6.40
2023-05-08T05:23:39.890Z,5.83
2023-05-08T05:26:12.980Z,6.37
2023-05-08T05:28:46.601Z,6.58
2023-05-08T05:31:19.990Z,6.20
2023-05-08T05:33:52.895Z,6.42
2023-05-08T05:36:25.973Z,6.00
2023-05-08T05:38:58.769Z,6.37
2023-05-08T05:41:31.684Z,6.08
2023-05-08T05:44:04.718Z,5.30
2023-05-08T05:46:38.306Z,5.00
2023-05-08T05:49:12.580Z,5.10
2023-05-08T05:51:45.736Z,5.83
2023-05-08T05:54:20.010Z,6.80
2023-05-08T05:56:52.906Z,6.10
2023-05-08T05:59:25.980Z,5.75
2023-05-08T06:01:59.232Z,5.58
2023-05-08T06:04:32.475Z,5.37
2023-05-08T06:07:05.721Z,6.20
2023-05-08T06:09:38.658Z,5.03
2023-05-08T06:12:12.413Z,5.53
2023-05-08T06:17:17.922Z,6.85
2023-05-08T06:19:52.830Z,6.47
2023-05-08T06:22:27.104Z,6.17
2023-05-08T06:25:00.150Z,6.50
2023-05-08T06:27:33.283Z,5.73
2023-05-08T06:30:10.982Z,6.12
2023-05-08T06:32:44.261Z,5.78
2023-05-08T06:35:20.150Z,6.47
2023-05-08T06:37:52.889Z,6.83
2023-05-08T06:40:26.612Z,5.85
2023-05-08T06:42:59.704Z,6.65
2023-05-08T06:45:32.597Z,6.40
2023-05-08T06:48:05.654Z,7.22
2023-05-08T06:50:43.050Z,5.95
2023-05-08T06:53:15.983Z,6.10
2023-05-08T06:55:49.311Z,6.65
2023-05-08T06:58:22.322Z,7.87
2023-05-08T07:00:55.163Z,6.58
2023-05-08T07:03:28.132Z,5.95
2023-05-08T07:06:01.013Z,5.53
2023-05-08T07:08:33.881Z,6.37
2023-05-08T07:11:09.161Z,5.60
2023-05-08T07:13:43.675Z,5.78
2023-05-08T07:16:17.174Z,5.72
2023-05-08T07:18:50.092Z,6.47
2023-05-08T07:21:22.930Z,5.58
2023-05-08T07:23:56.544Z,8.33
2023-05-08T07:26:29.405Z,9.20
2023-05-08T07:29:02.209Z,7.08
2023-05-08T07:31:35.034Z,10.03
2023-05-08T07:34:07.966Z,6.35
2023-05-08T07:36:40.688Z,6.72
2023-05-08T07:39:13.553Z,7.72
2023-05-08T07:41:49.109Z,6.87
2023-05-08T07:44:21.044Z,6.28
2023-05-08T07:46:54.045Z,6.03
2023-05-08T07:49:27.364Z,5.67
2023-05-08T07:52:00.096Z,6.10
2023-05-08T07:54:33.453Z,7.00
2023-05-08T07:57:06.467Z,7.42
2023-05-08T07:59:39.561Z,6.87
2023-05-08T08:02:12.433Z,5.92
2023-05-08T08:04:46.010Z,5.90
2023-05-08T08:07:18.917Z,6.47
2023-05-08T08:09:51.812Z,6.37
2023-05-08T08:12:24.588Z,7.03
2023-05-08T08:14:57.534Z,7.15
2023-05-08T08:17:30.322Z,5.15
2023-05-08T08:20:03.403Z,6.12
2023-05-08T08:22:37.336Z,8.30
2023-05-08T08:25:11.462Z,7.50
2023-05-08T08:30:17.981Z,6.03
2023-05-08T08:32:51.175Z,6.65
2023-05-08T08:35:25.527Z,5.47
2023-05-08T08:40:30.997Z,5.53
2023-05-08T08:43:04.124Z,5.78
2023-05-08T08:45:38.416Z,5.95
2023-05-08T08:48:16.456Z,5.20
2023-05-08T08:50:50.266Z,6.37
2023-05-08T08:53:28.511Z,4.87
2023-05-08T08:56:02.801Z,4.95
2023-05-08T09:01:21.900Z,5.40
2023-05-08T09:03:54.965Z,5.53
2023-05-08T09:06:29.282Z,4.62
2023-05-08T09:09:02.133Z,5.33
2023-05-08T09:11:35.972Z,4.10
2023-05-08T09:14:09.795Z,4.90
2023-05-08T09:16:42.823Z,4.95
2023-05-08T09:19:17.314Z,5.50
2023-05-08T09:21:51.475Z,4.85
2023-05-08T09:26:57.532Z,6.35
2023-05-08T09:29:30.384Z,7.42
2023-05-08T09:32:04.404Z,12.88
2023-05-08T09:34:37.308Z,12.63
2023-05-08T09:37:14.390Z,10.08
2023-05-08T09:39:48.051Z,5.58
2023-05-08T09:42:21.420Z,7.23
2023-05-08T09:44:55.837Z,7.73
2023-05-08T09:50:09.469Z,5.78
2023-05-08T09:52:47.813Z,5.65
2023-05-08T09:55:20.847Z,4.70
2023-05-08T09:57:59.274Z,5.92
2023-05-08T10:00:32.379Z,5.33
2023-05-08T10:03:06.288Z,4.10
2023-05-08T10:05:40.993Z,4.87
2023-05-08T10:08:27.073Z,3.83
2023-05-08T10:11:17.242Z,4.50
2023-05-08T10:13:50.622Z,3.95
2023-05-08T10:16:25.198Z,3.70
2023-05-08T10:19:03.491Z,3.50
2023-05-08T10:21:38.703Z,3.12
2023-05-08T10:24:16.767Z,3.80
2023-05-08T10:27:06.949Z,3.05
2023-05-08T10:32:11.615Z,3.27
2023-05-08T10:34:45.621Z,2.58
2023-05-08T10:37:20.008Z,3.02
2023-05-08T10:39:53.421Z,3.00
2023-05-08T10:42:27.183Z,6.73
2023-05-08T10:45:00.118Z,4.00
2023-05-08T10:47:54.801Z,3.58
2023-05-08T10:50:44.386Z,3.97
2023-05-08T10:53:42.295Z,3.55
2023-05-08T10:56:15.666Z,3.50
2023-05-08T10:58:48.468Z,3.40
2023-05-08T11:01:21.974Z,3.70
2023-05-08T11:03:58.756Z,4.05
2023-05-08T11:06:50.644Z,4.17
2023-05-08T11:09:30.822Z,4.53
2023-05-08T11:12:26.433Z,4.17
2023-05-08T11:15:10.533Z,4.12
2023-05-08T11:17:45.559Z,7.78
2023-05-08T11:20:18.377Z,6.90
2023-05-08T11:22:51.491Z,6.53
2023-05-08T11:25:29.162Z,4.05
2023-05-08T11:28:10.985Z,4.25
2023-05-08T11:30:45.802Z,3.98
2023-05-08T11:33:19.341Z,4.17
2023-05-08T11:36:20.305Z,3.60
2023-05-08T11:39:13.230Z,3.58
2023-05-08T11:41:47.762Z,3.60
2023-05-08T11:44:25.815Z,3.55
2023-05-08T11:47:00.160Z,2.77
2023-05-08T11:52:06.556Z,2.87
2023-05-08T11:57:11.693Z,4.00
2023-05-08T11:59:45.210Z,5.85
2023-05-08T12:02:18.208Z,4.47
2023-05-08T12:04:51.232Z,4.08
2023-05-08T12:07:24.134Z,4.35
2023-05-08T12:09:57.087Z,4.08
2023-05-08T12:12:45.663Z,4.00
2023-05-08T12:15:19.023Z,4.03
2023-05-08T12:18:03.158Z,4.17
2023-05-08T12:20:36.283Z,3.33
2023-05-08T12:23:10.458Z,3.40
2023-05-08T12:28:15.523Z,4.28
2023-05-08T12:30:49.031Z,3.42
2023-05-08T12:33:22.766Z,3.47
2023-05-08T12:35:57.109Z,3.40
2023-05-08T12:38:30.806Z,3.67
2023-05-08T12:41:06.875Z,4.03
2023-05-08T12:43:40.172Z,3.60
2023-05-08T12:46:14.914Z,3.52
2023-05-08T12:48:48.017Z,3.50
2023-05-08T12:51:21.074Z,4.12
2023-05-08T12:53:53.981Z,3.62
2023-05-08T12:56:26.927Z,4.85
2023-05-08T12:59:01.632Z,3.70
2023-05-08T13:01:35.843Z,3.58
2023-05-08T13:04:12.076Z,3.60
2023-05-08T13:06:46.356Z,3.12
2023-05-08T13:09:23.630Z,2.50
2023-05-08T13:11:56.827Z,2.80
2023-05-08T13:14:30.278Z,2.95
2023-05-08T13:17:03.171Z,2.90
2023-05-08T13:19:36.287Z,3.27
2023-05-08T13:22:09.214Z,3.27
2023-05-08T13:24:42.044Z,2.87
2023-05-08T13:29:48.696Z,3.40
2023-05-08T13:32:21.533Z,2.98
2023-05-08T13:34:57.699Z,3.02
2023-05-08T13:37:29.270Z,2.45
2023-05-08T13:40:02.358Z,2.80
2023-05-08T13:42:35.771Z,2.27
2023-05-08T13:45:12.369Z,2.45
2023-05-08T13:47:47.037Z,2.40
2023-05-08T13:50:22.058Z,2.80
2023-05-08T13:52:55.362Z,2.75
2023-05-08T13:55:28.345Z,3.30
2023-05-08T13:58:01.358Z,2.67
2023-05-08T14:00:34.916Z,4.00
2023-05-08T14:03:07.848Z,3.52
2023-05-08T14:05:40.978Z,2.95
2023-05-08T14:08:13.843Z,2.87
2023-05-08T14:10:47.010Z,3.00
2023-05-08T14:13:20.536Z,2.92
2023-05-08T14:15:53.430Z,2.40
2023-05-08T14:18:26.384Z,2.90
2023-05-08T14:20:59.181Z,3.30
2023-05-08T14:23:32.417Z,2.33
2023-05-08T14:26:06.142Z,2.40
2023-05-08T14:28:39.377Z,2.35
2023-05-08T14:31:12.250Z,2.50
2023-05-08T14:33:45.052Z,2.67
2023-05-08T14:36:18.311Z,2.77
2023-05-08T14:38:51.818Z,3.57
2023-05-08T14:41:26.925Z,3.35
2023-05-08T14:44:00.313Z,3.02
2023-05-08T14:46:33.837Z,2.90
2023-05-08T14:49:06.906Z,3.00
2023-05-08T14:51:40.340Z,2.67
2023-05-08T14:54:13.302Z,3.30
2023-05-08T14:56:47.685Z,3.45
2023-05-08T14:59:20.830Z,3.95
2023-05-08T15:01:53.781Z,3.95
2023-05-08T15:04:26.722Z,4.22
2023-05-08T15:06:59.760Z,4.53
2023-05-08T15:09:32.916Z,4.17
2023-05-08T15:12:05.991Z,3.72
2023-05-08T15:14:39.522Z,3.47
2023-05-08T15:17:12.283Z,3.58
2023-05-08T15:19:46.363Z,4.70
2023-05-08T15:22:19.369Z,4.20
2023-05-08T15:24:52.311Z,3.72
2023-05-08T15:27:25.401Z,3.60
2023-05-08T15:29:58.346Z,3.33
2023-05-08T15:32:31.565Z,4.10
2023-05-08T15:35:05.061Z,5.00
2023-05-08T15:37:38.781Z,5.35
2023-05-08T15:40:12.519Z,5.08
2023-05-08T15:42:45.425Z,5.67
2023-05-08T15:45:18.499Z,5.20
2023-05-08T15:47:51.409Z,5.53
2023-05-08T15:50:24.410Z,4.65
2023-05-08T15:52:57.259Z,5.97
2023-05-08T15:55:30.280Z,5.85
2023-05-08T15:58:03.504Z,4.83
2023-05-08T16:00:44.517Z,5.20
2023-05-08T16:03:11.974Z,4.80
2023-05-08T16:05:45.127Z,5.07
2023-05-08T16:08:18.706Z,5.47
2023-05-08T16:10:51.723Z,5.67
2023-05-08T16:13:24.620Z,5.53
2023-05-08T16:16:06.481Z,5.55
2023-05-08T16:18:39.555Z,4.62
2023-05-08T16:21:13.498Z,5.45
2023-05-08T16:23:46.457Z,5.70
2023-05-08T16:26:20.491Z,6.35
2023-05-08T16:28:53.423Z,6.12
2023-05-08T16:31:26.413Z,7.03
2023-05-08T16:33:59.612Z,7.72
2023-05-08T16:36:32.599Z,9.60
2023-05-08T16:39:05.450Z,7.15
2023-05-08T16:41:38.753Z,5.58
2023-05-08T16:44:11.496Z,4.20
2023-05-08T16:46:44.744Z,5.20
2023-05-08T16:49:17.658Z,6.45
2023-05-08T16:51:50.479Z,6.83
2023-05-08T16:54:23.450Z,6.20
2023-05-08T16:56:56.396Z,6.55
2023-05-08T16:59:29.248Z,6.47
2023-05-08T17:02:02.307Z,5.20
2023-05-08T17:04:35.638Z,4.10
2023-05-08T17:07:08.561Z,5.20
2023-05-08T17:09:41.785Z,4.67
2023-05-08T17:12:14.998Z,5.22
2023-05-08T17:14:48.258Z,5.67
2023-05-08T17:17:21.153Z,4.83
2023-05-08T17:19:54.020Z,4.37
2023-05-08T17:22:26.910Z,5.20
2023-05-08T17:24:59.725Z,4.85
2023-05-08T17:27:34.321Z,5.50
2023-05-08T17:30:10.807Z,5.92
2023-05-08T17:32:44.552Z,4.80
2023-05-08T17:35:17.625Z,4.80
2023-05-08T17:37:51.402Z,5.85
2023-05-08T17:40:26.293Z,5.70
2023-05-08T17:43:00.649Z,6.12
2023-05-08T17:45:34.426Z,5.60
2023-05-08T17:48:07.725Z,6.60
2023-05-08T17:53:15.053Z,4.83
2023-05-08T17:55:48.662Z,5.05
2023-05-08T17:58:21.526Z,5.25
2023-05-08T18:00:55.540Z,4.50
2023-05-08T18:03:28.483Z,5.08
2023-05-08T18:06:01.663Z,5.05
2023-05-08T18:08:36.095Z,4.40
2023-05-08T18:11:10.804Z,4.30
2023-05-08T18:13:44.626Z,5.10
2023-05-08T18:16:21.401Z,5.08
2023-05-08T18:18:54.241Z,5.22
2023-05-08T18:21:28.659Z,5.72
2023-05-08T18:24:01.635Z,5.20
2023-05-08T18:26:34.625Z,5.60
2023-05-08T18:29:07.759Z,5.37
2023-05-08T18:31:40.980Z,4.12
2023-05-08T18:34:14.072Z,4.35
2023-05-08T18:36:47.146Z,3.30
2023-05-08T18:39:20.149Z,3.20
2023-05-08T18:41:53.158Z,3.67
2023-05-08T18:44:26.131Z,3.05
2023-05-08T18:46:58.996Z,4.37
2023-05-08T18:49:32.084Z,3.62
2023-05-08T18:52:05.542Z,4.37
2023-05-08T18:54:38.765Z,3.98
2023-05-08T18:57:11.849Z,3.83
2023-05-08T18:59:44.801Z,3.72
2023-05-08T19:02:17.604Z,3.25
2023-05-08T19:04:50.304Z,3.35
2023-05-08T19:07:23.142Z,3.55
2023-05-08T19:09:57.678Z,3.42
2023-05-08T19:15:02.868Z,3.33
2023-05-08T19:17:38.963Z,3.72
2023-05-08T19:20:13.845Z,3.70
2023-05-08T19:22:47.454Z,4.17
2023-05-08T19:25:20.414Z,3.80
2023-05-08T19:27:53.396Z,3.33
2023-05-08T19:30:26.229Z,3.55
2023-05-08T19:32:59.599Z,3.83
2023-05-08T19:35:32.814Z,3.98
2023-05-08T19:38:05.752Z,3.30
2023-05-08T19:43:13.572Z,4.00
2023-05-08T19:45:47.252Z,3.37
2023-05-08T19:48:20.511Z,3.58
2023-05-08T19:50:55.006Z,3.97
2023-05-08T19:55:59.685Z,3.58
2023-05-08T19:58:33.157Z,3.83
2023-05-08T20:01:06.247Z,3.65
2023-05-08T20:03:39.735Z,3.75
2023-05-08T20:06:13.148Z,3.60
2023-05-08T20:08:46.033Z,3.42
2023-05-08T20:11:19.033Z,3.40
2023-05-08T20:13:52.098Z,3.52
2023-05-08T20:16:25.157Z,3.25
2023-05-08T20:18:58.187Z,4.08
2023-05-08T20:21:32.641Z,3.80
2023-05-08T20:24:05.838Z,4.10
2023-05-08T20:26:39.323Z,4.03
2023-05-08T20:29:12.937Z,3.62
2023-05-08T20:31:45.925Z,3.70
2023-05-08T20:34:21.228Z,4.42
2023-05-08T20:36:53.463Z,5.00
2023-05-08T20:39:26.732Z,4.67
2023-05-08T20:41:59.598Z,3.60
2023-05-08T20:44:32.502Z,4.25
2023-05-08T20:47:05.457Z,4.83
2023-05-08T20:49:38.189Z,3.70
2023-05-08T20:52:11.066Z,4.10
2023-05-08T20:54:45.380Z,4.33
2023-05-08T20:57:18.747Z,4.42
2023-05-08T20:59:51.740Z,4.57
2023-05-08T21:02:24.746Z,4.47
2023-05-08T21:04:57.547Z,4.72
2023-05-08T21:07:30.724Z,4.47
2023-05-08T21:10:03.507Z,4.22
2023-05-08T21:12:36.928Z,4.90
2023-05-08T21:15:10.632Z,5.28
2023-05-08T21:17:44.440Z,4.60
2023-05-08T21:20:17.511Z,4.28
2023-05-08T21:22:50.495Z,4.08
2023-05-08T21:25:23.538Z,4.40
2023-05-08T21:27:56.528Z,5.25
2023-05-08T21:30:29.477Z,7.75
2023-05-08T21:33:03.340Z,7.20
2023-05-08T21:35:36.592Z,6.25
2023-05-08T21:38:11.344Z,6.30
2023-05-08T21:40:45.066Z,5.35
2023-05-08T21:43:17.809Z,4.80
2023-05-08T21:45:50.661Z,4.20
2023-05-08T21:48:24.646Z,5.28
2023-05-08T21:50:57.457Z,4.80
2023-05-08T21:53:30.286Z,4.85
2023-05-08T21:56:03.185Z,4.42
2023-05-08T21:58:36.068Z,5.08
2023-05-08T22:01:09.090Z,7.42
2023-05-08T22:03:42.075Z,5.80
2023-05-08T22:06:14.979Z,5.65
2023-05-08T22:08:47.716Z,6.42
2023-05-08T22:11:20.929Z,5.58
2023-05-08T22:13:53.648Z,4.90
2023-05-08T22:16:26.787Z,5.60
2023-05-08T22:18:59.763Z,4.67
2023-05-08T22:21:33.377Z,5.50
2023-05-08T22:24:06.697Z,4.97
2023-05-08T22:26:40.029Z,4.83
2023-05-08T22:29:12.774Z,4.87
2023-05-08T22:31:47.657Z,3.95
2023-05-08T22:34:20.622Z,3.92
2023-05-08T22:36:53.307Z,4.17
2023-05-08T22:39:26.570Z,4.03
2023-05-08T22:42:00.016Z,4.03
2023-05-08T22:44:32.957Z,3.72
2023-05-08T22:47:06.116Z,4.15
2023-05-08T22:49:41.692Z,4.62
2023-05-08T22:52:14.355Z,4.12
2023-05-08T22:54:47.168Z,4.35
2023-05-08T22:57:19.973Z,4.12
2023-05-08T22:59:52.750Z,4.33
2023-05-08T23:02:25.557Z,4.20
2023-05-08T23:04:58.284Z,3.65
2023-05-08T23:07:31.192Z,4.40
2023-05-08T23:10:04.170Z,3.67
2023-05-08T23:12:37.353Z,3.42
2023-05-08T23:15:11.671Z,3.08
2023-05-08T23:17:45.626Z,2.75
2023-05-08T23:20:18.551Z,3.20
2023-05-08T23:22:51.364Z,2.85
2023-05-08T23:25:24.416Z,2.40
2023-05-08T23:27:57.309Z,2.52
2023-05-08T23:30:30.274Z,2.50
2023-05-08T23:33:03.246Z,2.60
2023-05-08T23:35:36.002Z,3.20
2023-05-08T23:38:08.657Z,3.22
2023-05-08T23:40:41.395Z,2.70
2023-05-08T23:43:14.449Z,2.55
2023-05-08T23:45:47.406Z,2.40
2023-05-08T23:48:20.296Z,2.30
2023-05-08T23:50:53.854Z,2.00
2023-05-08T23:53:26.729Z,2.10
2023-05-08T23:55:59.420Z,2.40
2023-05-08T23:58:33.065Z,2.30
